• Join FlightAware (Why Join?)
  • Login
  • US Flag 
03:12AM EDT


 

Airport Tracker/Info


-or-


 

Live Flight TrackerFlight Track Log ✈ ASH3795 ✈ 15-Jun-2013 ✈ KIAD - KCLT

Flight Track Log - Related Links

Times and Time Zones

All times are in EDT time to prevent confusion due to time zone crossing. See the ASH3795 flight status page for this flight to view local times or setup timezone preferences in your user account.

Time Position Orientation Groundspeed Altitude Reporting Facility
EDT Latitude Longitude Course Direction KTS MPH feet Rate Location/Type
09:04AM 38.9333 -77.5333 222° Southwest 206 237 2,900  Level Potomac TRACON
09:06AM 38.8328 -77.5583 191° South 262 302 7,200 2,640 Climbing Washington Center
09:07AM 38.6236 -77.7807 189° South  Level Estimated
09:07AM 38.7431 -77.5614 182° South 276 318 9,800  Level Washington Center
09:08AM 38.5425 -77.8604 185° South  Level Estimated
09:08AM 38.6533 -77.5617 180° South 310 357 12,500  Level Washington Center
09:09AM 38.4614 -77.9400 218° Southwest  Level Estimated
09:09AM 38.5636 -77.5644 181° South 322 371 14,800  Level Washington Center
09:10AM 38.3945 -78.0259 222° Southwest  Level FlightAware Approximate
09:10AM 38.4736 -77.5914 193° South 329 379 17,200  Level Washington Center
09:11AM 38.4075 -77.6742 224° Southwest 314 361 19,300 2,100 Climbing Washington Center
09:12AM 38.3394 -77.7569 224° Southwest 334 384 21,500 1,920 Climbing Washington Center
09:13AM 38.2667 -77.8450 224° Southwest 347 399 23,100 1,680 Climbing Washington Center
09:14AM 38.1919 -77.9378 224° Southwest 359 413 24,900 1,680 Climbing Washington Center
09:15AM 38.1172 -78.0306 224° Southwest 372 428 26,500 1,440 Climbing Washington Center
09:16AM 38.0403 -78.1256 224° Southwest 383 441 27,900 720 Climbing Washington Center
09:17AM 37.9669 -78.2283 228° Southwest 390 449 28,000  Climbing Washington Center
09:18AM 37.8939 -78.3311 228° Southwest 403 464 28,000 60 Level Washington Center
09:19AM 37.8225 -78.4336 229° Southwest 403 464 28,200 720 Climbing Washington Center
09:20AM 37.7556 -78.5308 229° Southwest 403 464 29,500 900 Climbing Washington Center
09:21AM 37.6819 -78.6358 228° Southwest 403 464 30,000 240 Climbing Washington Center
09:22AM 37.6064 -78.7428 228° Southwest 403 464 30,000  Level Washington Center
09:23AM 37.5219 -78.8597 228° Southwest 403 464 30,000  Level Washington Center
09:24AM 37.4481 -78.9639 228° Southwest 403 464 30,000  Level Washington Center
09:25AM 37.3742 -79.0678 228° Southwest 403 464 30,000  Level Washington Center
09:26AM 37.2981 -79.1714 227° Southwest 403 464 30,000  Level Washington Center
09:27AM 37.2136 -79.2692 223° Southwest 403 464 30,000  Level Washington Center
09:28AM 37.1131 -79.3528 214° Southwest 417 480 30,000  Level Washington Center
09:29AM 37.0208 -79.4289 213° Southwest 438 504 30,000  Level Washington Center
09:30AM 36.9181 -79.5122 213° Southwest 443 510 30,000  Level Washington Center
09:31AM 36.8194 -79.5953 214° Southwest 443 510 30,000  Level Washington Center
09:32AM 36.7186 -79.6756 213° Southwest 443 510 30,000 -180 Level Washington Center
09:33AM 36.6236 -79.7500 212° Southwest 448 516 29,700 -1,320 Descending Atlanta Center
09:34AM 36.5203 -79.8358 214° Southwest 448 516 27,500 -2,640 Descending Atlanta Center
09:35AM 36.4125 -79.9214 213° Southwest 436 502 24,500 -2,700 Descending Atlanta Center
09:36AM 36.3172 -79.9983 213° Southwest 426 490 22,100 -1,260 Descending Atlanta Center
09:37AM 36.2342 -80.0719 216° Southwest 401 461 22,000 -840 Descending Atlanta Center
09:38AM 36.1489 -80.1458 215° Southwest 385 443 20,500 -1,860 Descending Atlanta Center
09:39AM 36.0756 -80.2083 215° Southwest 373 429 18,300 -2,100 Descending Atlanta Center
09:40AM 35.9964 -80.2761 215° Southwest 367 422 16,400 -2,100 Descending Atlanta Center
09:41AM 35.9172 -80.3439 215° Southwest 362 417 14,100 -1,740 Descending Atlanta Center
09:42AM 35.8439 -80.4061 215° Southwest 340 391 13,000 -1,200 Descending Atlanta Center
09:43AM 35.7686 -80.4736 216° Southwest 299 344 11,800 -1,200 Descending Atlanta Center
09:44AM 35.7056 -80.5250 214° Southwest 311 358 10,600 -1,380 Descending Atlanta Center
09:45AM 35.6558 -80.6139 235° Southwest 289 333 9,000 -1,740 Descending Atlanta Center
09:46AM 35.6186 -80.7022 243° Southwest 289 333 7,200 -1,500 Descending Atlanta Center
09:47AM 35.5833 -80.7831 242° Southwest 284 327 6,000 -1,260 Descending Atlanta Center
09:48AM 35.5497 -80.8608 242° Southwest 273 314 4,700 -1,500 Descending Atlanta Center
09:48AM 35.5400 -80.8842 243° Southwest 261 300 4,100 -720 Descending Atlanta Center
09:49AM 35.5078 -80.9289 228° Southwest 266 306 4,000 -60 Descending Atlanta Center
09:50AM 35.4461 -80.9642 205° Southwest 243 280 4,000 -180 Level Atlanta Center
09:51AM 35.3772 -80.9694 184° South 186 214 3,700 -660 Descending Atlanta Center
09:52AM 35.3208 -80.9639 175° South 182 209 2,600 -1,140 Descending Atlanta Center